Oney Z — J8B4719 — position and weather

sailwx.info

Track history (hours):
 
Tides and Currents Weather Stations Pressure Air Temp Water Temp Dewpoint Dewpoint Depression Visibility Wind Speed Wind Dir Waves Ship Positions

Oney Z

Last reported at 2016-May-30 12:21 UTC. Time now 2016-Jun-01 05:29 UTC.
Position N 43°35' W 005°40'.

Length 79 m; draft 3.5 m.

Type: Cargo ship. MMSI: 376099000.

Date/timePositionNaut miles runAvg speedWind from/ knotsBaromVisibWave heightAir tempDewpointWater temp
2016-May-30 12:21N 43°35' W 005°40'2 0.1
2016-May-29 10:18N 43°34' W 005°42'0 0.0
2016-May-29 09:24N 43°34' W 005°42'0 0.0
2016-May-29 08:30N 43°34' W 005°42'0 0.0
2016-May-29 07:24N 43°34' W 005°42'0 0.0
2016-May-29 04:12N 43°34' W 005°42'0 0.0
2016-May-29 03:24N 43°34' W 005°42'0 0.0
2016-May-29 02:18N 43°34' W 005°42'0 0.0
2016-May-29 01:30N 43°34' W 005°42'0 0.0
2016-May-28 19:23N 43°34' W 005°42'0 0.0
2016-May-28 17:17N 43°34' W 005°42'0 0.0
2016-May-28 16:29N 43°34' W 005°42'0 0.0
2016-May-28 15:29N 43°34' W 005°42'0 0.0
2016-May-28 14:05N 43°34' W 005°42'0 0.0
2016-May-28 13:29N 43°34' W 005°42'0 0.0
2016-May-28 10:29N 43°34' W 005°42'0 0.0
2016-May-28 09:29N 43°34' W 005°42'0 0.0
2016-May-28 08:29N 43°34' W 005°42'0 0.0
2016-May-28 07:29N 43°34' W 005°42'0 0.0
2016-May-28 03:11N 43°34' W 005°42'0 0.0
2016-May-28 02:29N 43°34' W 005°42'0 0.0
2016-May-28 01:23N 43°34' W 005°42'0 0.0
2016-May-27 18:23N 43°34' W 005°42'3 0.3
2016-May-27 05:21N 43°36' W 005°39'0 0.0
2016-May-27 04:33N 43°36' W 005°39'0 0.0
2016-May-27 03:27N 43°36' W 005°39'0 0.0
2016-May-27 01:33N 43°36' W 005°39'0 0.0
2016-May-27 00:33N 43°36' W 005°39'262 8.4
2016-May-25 17:33N 47°56' W 004°60'143 5.6
2016-May-24 16:08N 49°57' W 003°02'111 8.8
2016-May-24 03:31N 50°27' W 000°15'1010.4
2016-May-24 02:33N 50°30' E 000°00'54 8.6
2016-May-23 20:15N 50°57' E 001°15'811.5
2016-May-23 19:33N 51°03' E 001°24'1111.1
2016-May-23 18:33N 51°10' E 001°37'9 9.3
2016-May-23 17:33N 51°20' E 001°37'9 9.2
2016-May-23 16:33N 51°27' E 001°29'1110.8
2016-May-23 15:33N 51°29' E 001°11'19 9.6
2016-May-23 13:33N 51°30' E 000°41'8 7.7
2016-May-23 12:33N 51°30' E 000°28'6 5.9
2016-May-23 11:33N 51°27' E 000°20'0 0.2
2016-May-23 10:34N 51°27' E 000°19'0 0.0
2016-May-23 09:34N 51°27' E 000°19'0 0.0
2016-May-23 08:34N 51°27' E 000°19'0 0.0
2016-May-23 07:34N 51°27' E 000°19'0 0.0
2016-May-23 06:34N 51°27' E 000°19'0 0.0
2016-May-23 05:34N 51°27' E 000°20'0 0.0
2016-May-23 04:34N 51°27' E 000°19'0 0.0
2016-May-23 03:33N 51°27' E 000°19'0 0.0
2016-May-23 02:34N 51°27' E 000°19'0 0.0
2016-May-23 01:34N 51°27' E 000°19'0 0.0
2016-May-23 00:34N 51°27' E 000°19'0 0.0
2016-May-22 23:34N 51°27' E 000°19'0 0.0
2016-May-22 22:34N 51°27' E 000°19'0 0.0
2016-May-22 21:34N 51°27' E 000°19'2 2.0
2016-May-22 20:33N 51°27' E 000°23'3 3.0
2016-May-22 19:33N 51°28' E 000°27'6 5.7
2016-May-22 18:33N 51°30' E 000°36'14 5.9
2016-May-22 16:09N 51°29' E 000°58'4 6.0
2016-May-22 15:31N 51°30' E 001°04'13 6.6
2016-May-22 13:33N 51°28' E 001°25'6 6.2
2016-May-22 12:33N 51°25' E 001°33'8 7.7
2016-May-22 11:33N 51°18' E 001°38'8 8.4
2016-May-22 10:33N 51°10' E 001°40'8 8.2
2016-May-22 09:33N 51°02' E 001°34'  
Track history (hours):
 
Tides and Currents Weather Stations Pressure Air Temp Water Temp Dewpoint Dewpoint Depression Visibility Wind Speed Wind Dir Waves Ship Positions

Oney Z

Last reported at 2016-May-30 12:21 UTC. Time now 2016-Jun-01 05:29 UTC.
Position N 43°35' W 005°40'.

Length 79 m; draft 3.5 m.

Type: Cargo ship. MMSI: 376099000.

Date/timePositionNaut miles runAvg speedWind from/ knotsBaromVisibWave heightAir tempDewpointWater temp
2016-May-30 12:21N 43°35' W 005°40'2 0.1
2016-May-29 10:18N 43°34' W 005°42'0 0.0
2016-May-29 09:24N 43°34' W 005°42'0 0.0
2016-May-29 08:30N 43°34' W 005°42'0 0.0
2016-May-29 07:24N 43°34' W 005°42'0 0.0
2016-May-29 04:12N 43°34' W 005°42'0 0.0
2016-May-29 03:24N 43°34' W 005°42'0 0.0
2016-May-29 02:18N 43°34' W 005°42'0 0.0
2016-May-29 01:30N 43°34' W 005°42'0 0.0
2016-May-28 19:23N 43°34' W 005°42'0 0.0
2016-May-28 17:17N 43°34' W 005°42'0 0.0
2016-May-28 16:29N 43°34' W 005°42'0 0.0
2016-May-28 15:29N 43°34' W 005°42'0 0.0
2016-May-28 14:05N 43°34' W 005°42'0 0.0
2016-May-28 13:29N 43°34' W 005°42'0 0.0
2016-May-28 10:29N 43°34' W 005°42'0 0.0
2016-May-28 09:29N 43°34' W 005°42'0 0.0
2016-May-28 08:29N 43°34' W 005°42'0 0.0
2016-May-28 07:29N 43°34' W 005°42'0 0.0
2016-May-28 03:11N 43°34' W 005°42'0 0.0
2016-May-28 02:29N 43°34' W 005°42'0 0.0
2016-May-28 01:23N 43°34' W 005°42'0 0.0
2016-May-27 18:23N 43°34' W 005°42'3 0.3
2016-May-27 05:21N 43°36' W 005°39'0 0.0
2016-May-27 04:33N 43°36' W 005°39'0 0.0
2016-May-27 03:27N 43°36' W 005°39'0 0.0
2016-May-27 01:33N 43°36' W 005°39'0 0.0
2016-May-27 00:33N 43°36' W 005°39'262 8.4
2016-May-25 17:33N 47°56' W 004°60'143 5.6
2016-May-24 16:08N 49°57' W 003°02'111 8.8
2016-May-24 03:31N 50°27' W 000°15'1010.4
2016-May-24 02:33N 50°30' E 000°00'54 8.6
2016-May-23 20:15N 50°57' E 001°15'811.5
2016-May-23 19:33N 51°03' E 001°24'1111.1
2016-May-23 18:33N 51°10' E 001°37'9 9.3
2016-May-23 17:33N 51°20' E 001°37'9 9.2
2016-May-23 16:33N 51°27' E 001°29'1110.8
2016-May-23 15:33N 51°29' E 001°11'19 9.6
2016-May-23 13:33N 51°30' E 000°41'8 7.7
2016-May-23 12:33N 51°30' E 000°28'6 5.9
2016-May-23 11:33N 51°27' E 000°20'0 0.2
2016-May-23 10:34N 51°27' E 000°19'0 0.0
2016-May-23 09:34N 51°27' E 000°19'0 0.0
2016-May-23 08:34N 51°27' E 000°19'0 0.0
2016-May-23 07:34N 51°27' E 000°19'0 0.0
2016-May-23 06:34N 51°27' E 000°19'0 0.0
2016-May-23 05:34N 51°27' E 000°20'0 0.0
2016-May-23 04:34N 51°27' E 000°19'0 0.0
2016-May-23 03:33N 51°27' E 000°19'0 0.0
2016-May-23 02:34N 51°27' E 000°19'0 0.0
2016-May-23 01:34N 51°27' E 000°19'0 0.0
2016-May-23 00:34N 51°27' E 000°19'0 0.0
2016-May-22 23:34N 51°27' E 000°19'0 0.0
2016-May-22 22:34N 51°27' E 000°19'0 0.0
2016-May-22 21:34N 51°27' E 000°19'2 2.0
2016-May-22 20:33N 51°27' E 000°23'3 3.0
2016-May-22 19:33N 51°28' E 000°27'6 5.7
2016-May-22 18:33N 51°30' E 000°36'14 5.9
2016-May-22 16:09N 51°29' E 000°58'4 6.0
2016-May-22 15:31N 51°30' E 001°04'13 6.6
2016-May-22 13:33N 51°28' E 001°25'6 6.2
2016-May-22 12:33N 51°25' E 001°33'8 7.7
2016-May-22 11:33N 51°18' E 001°38'8 8.4
2016-May-22 10:33N 51°10' E 001°40'8 8.2
2016-May-22 09:33N 51°02' E 001°34'  

Dump ship's entire track history